Time;durP1;ratioP1;P1;durP2;ratioP2;P2;SDS_P1;SDS_P2;PMS_P1;PMS_P2;Temp;Humidity;BMP_temperature;BMP_pressure;BME280_temperature;BME280_humidity;BME280_pressure;Samples;Min_cycle;Max_cycle;Signal;HPM_P1;HPM_P2
2022/03/06 00:01:28;;;;;;;1.73;1.63;;;;;;;;;;5120466;27;20339;-71
2022/03/06 00:04:15;;;;;;;1.90;1.80;;;;;;;;;;5117002;27;20255;-71
2022/03/06 00:07:02;;;;;;;1.67;1.57;;;;;;;;;;5121546;27;20703;-72
2022/03/06 00:09:49;;;;;;;2.00;1.70;;;;;;;;;;5118513;27;20307;-71
2022/03/06 00:12:35;;;;;;;2.10;2.00;;;;;;;;;;5118809;27;20212;-71
2022/03/06 00:15:23;;;;;;;1.87;1.77;;;;;;;;;;5117625;27;20286;-71
2022/03/06 00:18:12;;;;;;;1.30;1.30;;;;;;;;;;5119785;27;20204;-72
2022/03/06 00:20:59;;;;;;;1.80;1.70;;;;;;;;;;5120765;27;20256;-71
2022/03/06 00:23:46;;;;;;;1.80;1.70;;;;;;;;;;5119856;27;20310;-72
2022/03/06 00:26:33;;;;;;;2.00;1.90;;;;;;;;;;5118863;27;20293;-71
2022/03/06 00:29:19;;;;;;;1.90;1.80;;;;;;;;;;5115857;27;20305;-72
2022/03/06 00:32:07;;;;;;;1.40;1.30;;;;;;;;;;5121181;27;20615;-72
2022/03/06 00:34:56;;;;;;;1.73;1.63;;;;;;;;;;5120083;27;20259;-71
2022/03/06 00:37:43;;;;;;;1.50;1.40;;;;;;;;;;5120063;27;20685;-72
2022/03/06 00:40:30;;;;;;;1.50;1.40;;;;;;;;;;5119521;27;20214;-72
2022/03/06 00:43:17;;;;;;;1.63;1.53;;;;;;;;;;5116507;27;20702;-72
2022/03/06 00:46:04;;;;;;;1.50;1.40;;;;;;;;;;5117886;28;20205;-71
2022/03/06 00:48:51;;;;;;;1.47;1.37;;;;;;;;;;5119162;27;20212;-71
2022/03/06 00:51:39;;;;;;;1.77;1.67;;;;;;;;;;5119911;28;20254;-72
2022/03/06 00:54:26;;;;;;;1.30;1.30;;;;;;;;;;5119306;28;20212;-71
2022/03/06 00:57:13;;;;;;;1.47;1.30;;;;;;;;;;5119349;27;20249;-72
2022/03/06 01:00:00;;;;;;;1.60;1.50;;;;;;;;;;5124083;27;20259;-71
2022/03/06 01:02:47;;;;;;;1.73;1.60;;;;;;;;;;5123489;27;20202;-72
2022/03/06 01:05:35;;;;;;;1.50;1.40;;;;;;;;;;5123385;27;20272;-71
2022/03/06 01:08:23;;;;;;;1.53;1.43;;;;;;;;;;5126767;27;20206;-71
2022/03/06 01:11:10;;;;;;;1.40;1.30;;;;;;;;;;5121490;27;20249;-72
2022/03/06 01:13:57;;;;;;;1.33;1.33;;;;;;;;;;5121040;27;20235;-72
2022/03/06 01:16:44;;;;;;;1.70;1.60;;;;;;;;;;5123742;27;20259;-71
2022/03/06 01:19:31;;;;;;;1.50;1.40;;;;;;;;;;5122869;27;20343;-71
2022/03/06 01:22:18;;;;;;;1.50;1.40;;;;;;;;;;5124017;27;20194;-71
2022/03/06 01:25:08;;;;;;;2.60;1.50;;;;;;;;;;5121768;27;20793;-71
2022/03/06 01:27:55;;;;;;;1.30;1.20;;;;;;;;;;5121130;27;20354;-72
2022/03/06 01:30:42;;;;;;;1.50;1.40;;;;;;;;;;5123294;27;20300;-72
2022/03/06 01:33:29;;;;;;;1.23;1.13;;;;;;;;;;5122153;27;20241;-72
2022/03/06 01:36:15;;;;;;;1.90;1.40;;;;;;;;;;5124415;27;20246;-72
2022/03/06 01:39:02;;;;;;;1.43;1.40;;;;;;;;;;5123122;27;20209;-71
2022/03/06 01:41:51;;;;;;;1.60;1.50;;;;;;;;;;5118739;27;20240;-71
2022/03/06 01:44:38;;;;;;;1.30;1.20;;;;;;;;;;5121152;27;20246;-72
2022/03/06 01:47:32;;;;;;;1.20;1.20;;;;;;;;;;5122816;27;20338;-71
2022/03/06 01:50:21;;;;;;;1.40;1.40;;;;;;;;;;5121683;27;20217;-71
2022/03/06 01:53:09;;;;;;;1.40;1.30;;;;;;;;;;5120176;27;20269;-71
2022/03/06 01:55:56;;;;;;;1.40;1.30;;;;;;;;;;5117719;27;20203;-72
2022/03/06 01:58:44;;;;;;;1.20;1.20;;;;;;;;;;5118621;27;20674;-71
2022/03/06 02:01:32;;;;;;;1.40;1.30;;;;;;;;;;5118684;27;20297;-68
2022/03/06 02:04:19;;;;;;;1.47;1.37;;;;;;;;;;5124237;27;20366;-67
2022/03/06 02:07:06;;;;;;;1.43;1.33;;;;;;;;;;5119120;27;20262;-67
2022/03/06 02:09:53;;;;;;;1.40;1.30;;;;;;;;;;5119912;27;20291;-67
2022/03/06 02:12:41;;;;;;;1.30;1.20;;;;;;;;;;5121835;27;20668;-67
2022/03/06 02:15:30;;;;;;;1.50;1.40;;;;;;;;;;5121702;27;20241;-67
2022/03/06 02:18:19;;;;;;;1.53;1.43;;;;;;;;;;5118810;27;20620;-67
2022/03/06 02:21:09;;;;;;;1.63;1.53;;;;;;;;;;5124215;27;20202;-67
2022/03/06 02:23:56;;;;;;;1.80;1.60;;;;;;;;;;5122852;27;20781;-67
2022/03/06 02:26:43;;;;;;;1.43;1.33;;;;;;;;;;5123568;27;20214;-67
2022/03/06 02:29:30;;;;;;;1.23;1.17;;;;;;;;;;5124177;27;20206;-67
2022/03/06 02:32:19;;;;;;;1.50;1.40;;;;;;;;;;5120051;27;20216;-68
2022/03/06 02:35:07;;;;;;;1.50;1.40;;;;;;;;;;5121075;27;20210;-68
2022/03/06 02:37:56;;;;;;;1.50;1.40;;;;;;;;;;5121734;27;20346;-67
2022/03/06 02:40:44;;;;;;;1.70;1.37;;;;;;;;;;5121528;27;20266;-68
2022/03/06 02:43:31;;;;;;;1.63;1.53;;;;;;;;;;5122664;27;20251;-68
2022/03/06 02:46:18;;;;;;;1.40;1.40;;;;;;;;;;5120984;27;20221;-68
2022/03/06 02:49:04;;;;;;;1.30;1.30;;;;;;;;;;5121406;27;20283;-67
2022/03/06 02:51:51;;;;;;;2.33;1.20;;;;;;;;;;5124159;27;20363;-67
2022/03/06 02:54:40;;;;;;;1.60;1.50;;;;;;;;;;5123604;27;20633;-67
2022/03/06 02:57:27;;;;;;;1.50;1.40;;;;;;;;;;5121885;27;20331;-67
2022/03/06 03:00:17;;;;;;;1.07;1.00;;;;;;;;;;5119620;27;20206;-67
2022/03/06 03:03:04;;;;;;;1.57;1.47;;;;;;;;;;5121087;27;20205;-67
2022/03/06 03:05:51;;;;;;;1.53;1.43;;;;;;;;;;5121913;27;20226;-68
2022/03/06 03:08:38;;;;;;;1.63;1.53;;;;;;;;;;5119801;27;20202;-67
2022/03/06 03:11:26;;;;;;;1.00;1.00;;;;;;;;;;5119519;27;20209;-67
2022/03/06 03:14:14;;;;;;;1.37;1.27;;;;;;;;;;5123721;27;20300;-67
2022/03/06 03:17:01;;;;;;;1.60;1.50;;;;;;;;;;5118104;27;20236;-67
2022/03/06 03:19:48;;;;;;;1.40;1.30;;;;;;;;;;5120658;27;20701;-67
2022/03/06 03:22:35;;;;;;;2.50;1.33;;;;;;;;;;5119706;27;20685;-67
2022/03/06 03:25:21;;;;;;;1.20;1.10;;;;;;;;;;5123939;27;20286;-67
2022/03/06 03:28:10;;;;;;;1.07;1.07;;;;;;;;;;5119024;27;20349;-68
2022/03/06 03:30:57;;;;;;;1.57;1.47;;;;;;;;;;5123711;27;20202;-68
2022/03/06 03:33:44;;;;;;;1.60;1.30;;;;;;;;;;5119742;27;20211;-67
2022/03/06 03:36:31;;;;;;;1.50;1.40;;;;;;;;;;5121467;27;20210;-67
2022/03/06 03:39:18;;;;;;;1.53;1.43;;;;;;;;;;5123769;27;20580;-67
2022/03/06 03:42:05;;;;;;;1.10;1.10;;;;;;;;;;5119145;27;20236;-67
2022/03/06 03:44:53;;;;;;;1.40;1.30;;;;;;;;;;5120420;27;20258;-67
2022/03/06 03:47:40;;;;;;;1.17;1.17;;;;;;;;;;5118449;27;20258;-68
2022/03/06 03:50:27;;;;;;;1.03;1.03;;;;;;;;;;5118453;27;20258;-67
2022/03/06 03:53:14;;;;;;;1.50;1.40;;;;;;;;;;5118976;27;20316;-68
2022/03/06 03:56:01;;;;;;;1.53;1.43;;;;;;;;;;5117991;27;20290;-67
2022/03/06 03:58:48;;;;;;;1.47;1.30;;;;;;;;;;5121209;27;20219;-67
2022/03/06 04:01:36;;;;;;;1.50;1.40;;;;;;;;;;5117539;27;20202;-67
2022/03/06 04:04:24;;;;;;;1.77;1.20;;;;;;;;;;5120210;27;20265;-68
2022/03/06 04:07:11;;;;;;;1.73;1.63;;;;;;;;;;5118071;27;20202;-68
2022/03/06 04:09:58;;;;;;;1.07;1.07;;;;;;;;;;5118923;27;20287;-67
2022/03/06 04:12:45;;;;;;;1.30;1.30;;;;;;;;;;5118020;27;20689;-67
2022/03/06 04:15:32;;;;;;;1.10;1.10;;;;;;;;;;5115343;27;20237;-67
2022/03/06 04:18:20;;;;;;;1.00;1.00;;;;;;;;;;5121629;27;20193;-67
2022/03/06 04:21:07;;;;;;;1.27;1.17;;;;;;;;;;5116344;27;20698;-67
2022/03/06 04:23:54;;;;;;;1.27;1.23;;;;;;;;;;5118346;27;20681;-67
2022/03/06 04:26:41;;;;;;;1.50;1.40;;;;;;;;;;5116411;27;20260;-68
2022/03/06 04:29:28;;;;;;;1.50;1.40;;;;;;;;;;5117273;27;20230;-67
2022/03/06 04:32:15;;;;;;;1.03;1.00;;;;;;;;;;5121200;27;20228;-67
2022/03/06 04:35:03;;;;;;;1.60;1.50;;;;;;;;;;5120257;27;20259;-67
2022/03/06 04:37:51;;;;;;;1.57;1.47;;;;;;;;;;5116023;27;20678;-67
2022/03/06 04:40:38;;;;;;;1.50;1.40;;;;;;;;;;5119073;27;20206;-68
2022/03/06 04:43:25;;;;;;;1.17;1.17;;;;;;;;;;5118411;27;20269;-67
2022/03/06 04:46:12;;;;;;;1.60;1.50;;;;;;;;;;5122862;27;20595;-67
2022/03/06 04:48:59;;;;;;;1.23;1.23;;;;;;;;;;5119921;27;20210;-67
2022/03/06 04:51:47;;;;;;;1.23;1.00;;;;;;;;;;5119328;27;20703;-67
2022/03/06 04:54:34;;;;;;;1.50;1.40;;;;;;;;;;5118708;27;20205;-68
2022/03/06 04:57:21;;;;;;;1.23;1.13;;;;;;;;;;5121288;28;20255;-68
2022/03/06 05:00:09;;;;;;;1.20;1.20;;;;;;;;;;5115335;28;20238;-67
2022/03/06 05:02:56;;;;;;;1.37;1.37;;;;;;;;;;5119915;28;20685;-67
2022/03/06 05:05:43;;;;;;;1.40;1.30;;;;;;;;;;5118630;28;20900;-67
2022/03/06 05:08:31;;;;;;;1.63;1.53;;;;;;;;;;5118167;28;20617;-67
2022/03/06 05:11:19;;;;;;;1.63;1.53;;;;;;;;;;5119201;28;20220;-67
2022/03/06 05:14:06;;;;;;;1.10;1.10;;;;;;;;;;5120462;28;20211;-67
2022/03/06 05:16:53;;;;;;;1.90;1.50;;;;;;;;;;5118430;28;20217;-67
2022/03/06 05:19:40;;;;;;;1.60;1.50;;;;;;;;;;5116141;28;20229;-67
2022/03/06 05:22:26;;;;;;;1.47;1.47;;;;;;;;;;5122845;28;20241;-67
2022/03/06 05:25:15;;;;;;;1.63;1.53;;;;;;;;;;5122328;28;20221;-67
2022/03/06 05:28:02;;;;;;;1.83;1.73;;;;;;;;;;5119250;28;20688;-68
2022/03/06 05:30:49;;;;;;;1.67;1.57;;;;;;;;;;5120044;28;20205;-67
2022/03/06 05:33:36;;;;;;;2.00;1.90;;;;;;;;;;5116035;28;20284;-68
2022/03/06 05:36:23;;;;;;;2.00;1.90;;;;;;;;;;5117812;28;20298;-67
2022/03/06 05:39:10;;;;;;;2.10;1.90;;;;;;;;;;5118181;28;20205;-67
2022/03/06 05:41:58;;;;;;;1.87;1.77;;;;;;;;;;5116316;28;20206;-67
2022/03/06 05:44:45;;;;;;;2.17;2.07;;;;;;;;;;5121496;27;20634;-67
2022/03/06 05:47:32;;;;;;;2.20;2.00;;;;;;;;;;5119878;27;20230;-67
2022/03/06 05:50:19;;;;;;;2.47;2.20;;;;;;;;;;5124313;27;20233;-67
2022/03/06 05:53:06;;;;;;;2.77;2.10;;;;;;;;;;5120812;27;20251;-67
2022/03/06 05:55:53;;;;;;;2.40;2.20;;;;;;;;;;5121138;27;20252;-67
2022/03/06 05:58:42;;;;;;;2.07;1.97;;;;;;;;;;5123563;27;20627;-68
2022/03/06 06:01:29;;;;;;;2.90;2.03;;;;;;;;;;5124540;27;20266;-68
2022/03/06 06:04:18;;;;;;;2.10;2.00;;;;;;;;;;5121141;27;20209;-67
2022/03/06 06:07:05;;;;;;;1.80;1.70;;;;;;;;;;5123232;27;20690;-68
2022/03/06 06:09:52;;;;;;;2.00;1.90;;;;;;;;;;5123886;27;20242;-67
2022/03/06 06:12:39;;;;;;;2.07;1.97;;;;;;;;;;5118734;27;20971;-67
2022/03/06 06:15:27;;;;;;;1.90;1.80;;;;;;;;;;5122586;27;20202;-67
2022/03/06 06:18:14;;;;;;;2.00;1.90;;;;;;;;;;5123604;27;20218;-67
2022/03/06 06:21:01;;;;;;;1.90;1.80;;;;;;;;;;5123504;27;20288;-67
2022/03/06 06:23:48;;;;;;;1.90;1.80;;;;;;;;;;5121214;27;20213;-68
2022/03/06 06:26:35;;;;;;;2.07;1.87;;;;;;;;;;5120708;27;20714;-67
2022/03/06 06:29:22;;;;;;;1.93;1.83;;;;;;;;;;5122303;27;20625;-69
2022/03/06 06:32:10;;;;;;;2.07;1.90;;;;;;;;;;5119610;27;20302;-67
2022/03/06 06:34:57;;;;;;;2.10;1.87;;;;;;;;;;5122686;27;20197;-67
2022/03/06 06:37:44;;;;;;;1.90;1.80;;;;;;;;;;5119694;27;20353;-67
2022/03/06 06:40:32;;;;;;;1.93;1.80;;;;;;;;;;5122234;27;20197;-67
2022/03/06 06:43:19;;;;;;;2.17;1.80;;;;;;;;;;5120898;27;20317;-68
2022/03/06 06:46:06;;;;;;;1.70;1.60;;;;;;;;;;5120044;27;20222;-68
2022/03/06 06:48:55;;;;;;;2.57;1.90;;;;;;;;;;5125302;27;20305;-68
2022/03/06 06:51:42;;;;;;;1.83;1.73;;;;;;;;;;5123556;27;20692;-67
2022/03/06 06:54:28;;;;;;;1.73;1.63;;;;;;;;;;5122024;27;20202;-67
2022/03/06 06:57:15;;;;;;;2.70;2.07;;;;;;;;;;5122793;27;20234;-68
2022/03/06 07:00:05;;;;;;;2.37;2.17;;;;;;;;;;5119648;27;20219;-68
2022/03/06 07:02:52;;;;;;;2.17;2.07;;;;;;;;;;5120324;27;20232;-66
2022/03/06 07:05:40;;;;;;;1.80;1.70;;;;;;;;;;5122063;27;20690;-68
2022/03/06 07:08:27;;;;;;;2.10;2.00;;;;;;;;;;5118075;27;20285;-68
2022/03/06 07:11:14;;;;;;;2.13;2.03;;;;;;;;;;5123849;27;20259;-68
2022/03/06 07:14:01;;;;;;;2.00;1.90;;;;;;;;;;5123088;27;20211;-68
2022/03/06 07:16:48;;;;;;;2.57;1.97;;;;;;;;;;5120712;27;20672;-68
2022/03/06 07:19:35;;;;;;;2.10;2.00;;;;;;;;;;5121943;27;20942;-68
2022/03/06 07:22:23;;;;;;;2.10;1.80;;;;;;;;;;5123465;27;20219;-68
2022/03/06 07:25:10;;;;;;;2.13;1.93;;;;;;;;;;5121270;27;20203;-68
2022/03/06 07:27:57;;;;;;;2.10;1.90;;;;;;;;;;5123415;27;20299;-68
2022/03/06 07:30:44;;;;;;;2.10;2.00;;;;;;;;;;5119401;27;20294;-68
2022/03/06 07:33:31;;;;;;;1.63;1.53;;;;;;;;;;5117663;27;20261;-68
2022/03/06 07:36:18;;;;;;;1.77;1.67;;;;;;;;;;5118104;27;20283;-67
2022/03/06 07:39:06;;;;;;;2.10;2.00;;;;;;;;;;5120988;27;20237;-67
2022/03/06 07:41:53;;;;;;;1.80;1.70;;;;;;;;;;5121114;27;20293;-68
2022/03/06 07:44:40;;;;;;;1.73;1.63;;;;;;;;;;5121031;27;20233;-68
2022/03/06 07:47:27;;;;;;;1.80;1.70;;;;;;;;;;5118056;27;20228;-68
2022/03/06 07:50:15;;;;;;;2.30;1.80;;;;;;;;;;5120545;27;20270;-68
2022/03/06 07:53:02;;;;;;;1.67;1.57;;;;;;;;;;5120337;27;20691;-68
2022/03/06 07:55:50;;;;;;;2.17;1.57;;;;;;;;;;5117647;27;20241;-68
2022/03/06 07:58:37;;;;;;;1.97;1.87;;;;;;;;;;5113822;27;20221;-67
2022/03/06 08:01:24;;;;;;;1.50;1.40;;;;;;;;;;5120370;27;20257;-68
2022/03/06 08:04:11;;;;;;;1.97;1.57;;;;;;;;;;5121742;27;20683;-67
2022/03/06 08:06:58;;;;;;;1.83;1.73;;;;;;;;;;5117506;27;20296;-67
2022/03/06 08:09:45;;;;;;;1.70;1.60;;;;;;;;;;5120121;27;20244;-67
2022/03/06 08:12:33;;;;;;;1.70;1.60;;;;;;;;;;5116442;27;20328;-68
2022/03/06 08:15:20;;;;;;;2.70;1.70;;;;;;;;;;5118619;27;20288;-67
2022/03/06 08:18:07;;;;;;;1.77;1.67;;;;;;;;;;5123395;27;20291;-67
2022/03/06 08:20:54;;;;;;;1.60;1.50;;;;;;;;;;5117211;27;20209;-67
2022/03/06 08:23:41;;;;;;;1.80;1.67;;;;;;;;;;5115237;27;20283;-67
2022/03/06 08:26:28;;;;;;;1.70;1.60;;;;;;;;;;5119180;27;20280;-67
2022/03/06 08:29:16;;;;;;;1.30;1.30;;;;;;;;;;5121331;27;20302;-66
2022/03/06 08:32:04;;;;;;;1.57;1.47;;;;;;;;;;5114256;27;20666;-67
2022/03/06 08:34:51;;;;;;;1.80;1.70;;;;;;;;;;5119101;27;20205;-67
2022/03/06 08:37:38;;;;;;;1.60;1.50;;;;;;;;;;5114152;28;20209;-67
2022/03/06 08:40:25;;;;;;;1.37;1.33;;;;;;;;;;5116051;27;20327;-67
2022/03/06 08:43:12;;;;;;;1.40;1.30;;;;;;;;;;5118298;27;20251;-66
2022/03/06 08:46:03;;;;;;;2.93;1.70;;;;;;;;;;5116536;27;20688;-68
2022/03/06 08:48:49;;;;;;;1.40;1.40;;;;;;;;;;5121205;27;20216;-67
2022/03/06 08:51:36;;;;;;;1.60;1.60;;;;;;;;;;5117083;27;20223;-67
2022/03/06 08:54:23;;;;;;;1.10;1.10;;;;;;;;;;5119502;27;20216;-68
2022/03/06 08:57:10;;;;;;;1.63;1.50;;;;;;;;;;5120365;28;20206;-67
2022/03/06 08:59:57;;;;;;;1.80;1.70;;;;;;;;;;5120747;28;20665;-67
2022/03/06 09:02:45;;;;;;;1.30;1.30;;;;;;;;;;5121184;28;20320;-68
2022/03/06 09:05:33;;;;;;;1.37;1.27;;;;;;;;;;5116900;28;20624;-67
2022/03/06 09:08:20;;;;;;;1.60;1.50;;;;;;;;;;5117801;28;20215;-67
2022/03/06 09:11:07;;;;;;;1.20;1.20;;;;;;;;;;5120492;28;20210;-67
2022/03/06 09:13:54;;;;;;;1.27;1.17;;;;;;;;;;5119065;28;20209;-67
2022/03/06 09:16:41;;;;;;;1.50;1.40;;;;;;;;;;5115707;28;20244;-67
2022/03/06 09:19:30;;;;;;;0.93;0.93;;;;;;;;;;5121046;27;20270;-67
2022/03/06 09:22:16;;;;;;;1.40;1.30;;;;;;;;;;5123335;27;20243;-67
2022/03/06 09:25:04;;;;;;;1.43;1.10;;;;;;;;;;5123554;27;20205;-67
2022/03/06 09:27:52;;;;;;;1.10;1.00;;;;;;;;;;5125246;27;20217;-67
2022/03/06 09:30:39;;;;;;;1.30;1.20;;;;;;;;;;5123899;27;20221;-68
2022/03/06 09:33:26;;;;;;;1.17;1.17;;;;;;;;;;5120275;27;20200;-67
2022/03/06 09:36:14;;;;;;;2.03;1.10;;;;;;;;;;5121925;27;20233;-67
2022/03/06 09:39:01;;;;;;;0.93;0.93;;;;;;;;;;5119279;27;20258;-67
2022/03/06 09:41:49;;;;;;;1.20;1.10;;;;;;;;;;5120614;27;20241;-67
2022/03/06 09:44:39;;;;;;;1.60;1.50;;;;;;;;;;5122601;27;20651;-67
2022/03/06 09:47:25;;;;;;;1.20;1.20;;;;;;;;;;5121939;27;20217;-68
2022/03/06 09:50:14;;;;;;;1.03;1.03;;;;;;;;;;5123263;27;20292;-67
2022/03/06 09:53:02;;;;;;;1.20;1.20;;;;;;;;;;5121787;27;20265;-67
2022/03/06 09:55:49;;;;;;;1.10;1.10;;;;;;;;;;5120706;27;20205;-69
2022/03/06 09:58:36;;;;;;;1.17;1.07;;;;;;;;;;5124321;27;20220;-67
2022/03/06 10:01:23;;;;;;;0.90;0.90;;;;;;;;;;5120602;27;20298;-67
2022/03/06 10:04:29;;;;;;;1.40;1.33;;;;;;;;;;5125555;27;20205;-67
2022/03/06 10:07:19;;;;;;;0.77;0.77;;;;;;;;;;5119285;27;20681;-67
2022/03/06 10:10:08;;;;;;;0.87;0.87;;;;;;;;;;5123244;27;20216;-67
2022/03/06 10:12:55;;;;;;;1.30;1.20;;;;;;;;;;5118227;27;20301;-67
2022/03/06 10:15:57;;;;;;;1.60;0.90;;;;;;;;;;5122836;27;20203;-67
2022/03/06 10:18:46;;;;;;;1.13;1.13;;;;;;;;;;5119026;27;20205;-68
2022/03/06 10:21:33;;;;;;;0.90;0.90;;;;;;;;;;5123978;27;20215;-67
2022/03/06 10:24:23;;;;;;;1.53;1.30;;;;;;;;;;5126802;27;20205;-67
2022/03/06 10:27:11;;;;;;;4.53;3.50;;;;;;;;;;5122750;27;20248;-67
2022/03/06 10:29:58;;;;;;;5.43;4.63;;;;;;;;;;5119556;27;20657;-67
2022/03/06 10:32:45;;;;;;;7.33;4.80;;;;;;;;;;5119501;27;20218;-67
2022/03/06 10:35:34;;;;;;;5.63;4.60;;;;;;;;;;5120615;27;20211;-67
2022/03/06 10:38:22;;;;;;;5.27;4.70;;;;;;;;;;5120474;27;20204;-67
2022/03/06 10:41:17;;;;;;;5.20;4.70;;;;;;;;;;5119906;27;20577;-67
2022/03/06 10:44:10;;;;;;;5.77;4.53;;;;;;;;;;5099087;28;20654;-67
2022/03/06 10:47:01;;;;;;;6.13;4.40;;;;;;;;;;5101059;28;20648;-66
2022/03/06 10:49:59;;;;;;;4.90;4.40;;;;;;;;;;5099462;28;20247;-67
2022/03/06 10:52:46;;;;;;;5.90;4.47;;;;;;;;;;5103017;28;20235;-66
2022/03/06 10:55:34;;;;;;;4.30;4.00;;;;;;;;;;5100704;28;20231;-67
2022/03/06 10:58:22;;;;;;;4.60;3.90;;;;;;;;;;5099216;28;20199;-67
2022/03/06 11:01:10;;;;;;;4.40;4.10;;;;;;;;;;5101356;28;20215;-67
2022/03/06 11:03:59;;;;;;;4.00;3.70;;;;;;;;;;5101274;28;20691;-67
2022/03/06 11:06:48;;;;;;;4.30;3.93;;;;;;;;;;5100958;28;20251;-67
2022/03/06 11:09:37;;;;;;;3.87;3.57;;;;;;;;;;5103084;28;20285;-67
2022/03/06 11:12:24;;;;;;;3.93;3.60;;;;;;;;;;5101310;28;20242;-67
2022/03/06 11:15:11;;;;;;;3.80;3.50;;;;;;;;;;5101122;28;20290;-66
2022/03/06 11:18:01;;;;;;;5.33;3.60;;;;;;;;;;5097557;28;20211;-67
2022/03/06 11:20:49;;;;;;;3.17;2.97;;;;;;;;;;5099976;28;20223;-66
2022/03/06 11:23:39;;;;;;;3.47;3.20;;;;;;;;;;5102794;28;20311;-66
2022/03/06 11:26:56;;;;;;;3.27;3.07;;;;;;;;;;5097461;28;20702;-66
2022/03/06 11:30:00;;;;;;;3.20;2.90;;;;;;;;;;5100498;28;20236;-66
2022/03/06 11:32:58;;;;;;;3.00;2.80;;;;;;;;;;5095500;28;20218;-66
2022/03/06 11:35:47;;;;;;;3.33;3.13;;;;;;;;;;5095429;28;20223;-67
2022/03/06 11:38:40;;;;;;;2.63;2.53;;;;;;;;;;5102533;28;20201;-67
2022/03/06 11:41:27;;;;;;;2.80;2.60;;;;;;;;;;5098814;28;20213;-66
2022/03/06 11:44:33;;;;;;;3.10;2.90;;;;;;;;;;5100300;28;20288;-66
2022/03/06 11:47:22;;;;;;;2.80;2.43;;;;;;;;;;5099424;28;20685;-67
2022/03/06 11:50:21;;;;;;;2.40;2.20;;;;;;;;;;5097665;28;20206;-66
2022/03/06 11:53:40;;;;;;;2.50;2.30;;;;;;;;;;5101077;28;20734;-67
2022/03/06 11:56:59;;;;;;;2.10;2.00;;;;;;;;;;5101925;28;20300;-66
2022/03/06 11:59:46;;;;;;;2.40;2.20;;;;;;;;;;5098780;28;20691;-67
2022/03/06 12:02:46;;;;;;;1.87;1.77;;;;;;;;;;5094386;28;20681;-67
2022/03/06 12:05:46;;;;;;;2.17;2.07;;;;;;;;;;5102156;28;20212;-67
2022/03/06 12:08:42;;;;;;;2.03;1.90;;;;;;;;;;5097663;28;20701;-66
2022/03/06 12:11:32;;;;;;;1.80;1.70;;;;;;;;;;5102299;28;20240;-66
2022/03/06 12:14:22;;;;;;;1.90;1.80;;;;;;;;;;5100687;28;20216;-67
2022/03/06 12:17:43;;;;;;;1.30;1.30;;;;;;;;;;5100278;28;20809;-65
2022/03/06 12:20:41;;;;;;;1.80;1.70;;;;;;;;;;5092294;28;20206;-64
2022/03/06 12:23:30;;;;;;;1.50;1.50;;;;;;;;;;5097395;28;20338;-64
2022/03/06 12:26:44;;;;;;;1.60;1.50;;;;;;;;;;5102160;28;20210;-65
2022/03/06 12:29:57;;;;;;;1.70;1.60;;;;;;;;;;5101093;28;20280;-66
2022/03/06 12:32:44;;;;;;;1.27;1.17;;;;;;;;;;5096877;28;20207;-65
2022/03/06 12:35:31;;;;;;;1.43;1.33;;;;;;;;;;5098969;28;20292;-66
2022/03/06 12:38:22;;;;;;;1.30;1.20;;;;;;;;;;5096332;28;20198;-66
2022/03/06 12:41:10;;;;;;;1.00;1.00;;;;;;;;;;5096339;28;20205;-66
2022/03/06 12:44:06;;;;;;;1.20;1.10;;;;;;;;;;5117642;27;20225;-66
2022/03/06 12:46:54;;;;;;;0.83;0.83;;;;;;;;;;5119178;27;20282;-66
2022/03/06 12:49:41;;;;;;;1.10;1.10;;;;;;;;;;5120325;27;20233;-66
2022/03/06 12:52:29;;;;;;;1.00;1.00;;;;;;;;;;5122062;27;20221;-66
2022/03/06 12:55:18;;;;;;;1.00;1.00;;;;;;;;;;5118073;27;20294;-66
2022/03/06 12:58:05;;;;;;;0.90;0.90;;;;;;;;;;5118363;27;20197;-67
2022/03/06 13:00:52;;;;;;;0.83;0.83;;;;;;;;;;5116707;28;20277;-66
2022/03/06 13:03:40;;;;;;;0.87;0.87;;;;;;;;;;5119618;28;20265;-66
2022/03/06 13:06:29;;;;;;;0.70;0.70;;;;;;;;;;5120261;28;20568;-65
2022/03/06 13:09:23;;;;;;;0.80;0.80;;;;;;;;;;5122066;28;20236;-66
2022/03/06 13:12:10;;;;;;;0.70;0.70;;;;;;;;;;5120339;28;20745;-66
2022/03/06 13:14:57;;;;;;;0.90;0.90;;;;;;;;;;5117881;28;20221;-66
2022/03/06 13:17:47;;;;;;;0.80;0.80;;;;;;;;;;5121032;28;20202;-66
2022/03/06 13:20:37;;;;;;;0.80;0.80;;;;;;;;;;5116495;28;20191;-66
2022/03/06 13:23:24;;;;;;;0.67;0.67;;;;;;;;;;5117341;28;20300;-66
2022/03/06 13:26:11;;;;;;;0.90;0.77;;;;;;;;;;5116200;28;20211;-66
2022/03/06 13:28:59;;;;;;;0.67;0.67;;;;;;;;;;5116810;28;20224;-66
2022/03/06 13:31:48;;;;;;;0.80;0.60;;;;;;;;;;5116664;28;20208;-67
2022/03/06 13:34:42;;;;;;;0.80;0.80;;;;;;;;;;5119627;28;20282;-66
2022/03/06 13:37:35;;;;;;;0.53;0.53;;;;;;;;;;5115246;28;20210;-68
2022/03/06 13:40:25;;;;;;;0.50;0.50;;;;;;;;;;5120132;28;20710;-67
2022/03/06 13:43:13;;;;;;;0.53;0.53;;;;;;;;;;5118268;28;20660;-66
2022/03/06 13:46:00;;;;;;;0.90;0.90;;;;;;;;;;5118518;28;20342;-67
2022/03/06 13:48:47;;;;;;;0.90;0.90;;;;;;;;;;5117763;28;20325;-66
2022/03/06 13:51:34;;;;;;;0.80;0.80;;;;;;;;;;5115496;28;20214;-66
2022/03/06 13:54:23;;;;;;;2.37;0.90;;;;;;;;;;5119280;28;20207;-66
2022/03/06 13:57:12;;;;;;;0.73;0.73;;;;;;;;;;5117860;28;20233;-66
2022/03/06 14:00:20;;;;;;;0.60;0.60;;;;;;;;;;5117062;28;20335;-67
2022/03/06 14:03:09;;;;;;;0.80;0.80;;;;;;;;;;5117912;28;20303;-67
2022/03/06 14:05:56;;;;;;;0.70;0.70;;;;;;;;;;5116506;27;20726;-67
2022/03/06 14:08:44;;;;;;;0.67;0.67;;;;;;;;;;5120284;27;20276;-66
2022/03/06 14:11:33;;;;;;;0.70;0.70;;;;;;;;;;5120206;27;20261;-66
2022/03/06 14:14:20;;;;;;;0.60;0.60;;;;;;;;;;5118843;27;20853;-67
2022/03/06 14:17:08;;;;;;;0.80;0.80;;;;;;;;;;5118981;27;20223;-66
2022/03/06 14:19:56;;;;;;;0.63;0.63;;;;;;;;;;5121413;27;20297;-71
2022/03/06 14:22:43;;;;;;;0.63;0.63;;;;;;;;;;5120355;27;20651;-71
2022/03/06 14:25:30;;;;;;;0.40;0.40;;;;;;;;;;5120052;27;20207;-71
2022/03/06 14:28:18;;;;;;;0.60;0.60;;;;;;;;;;5119926;27;20333;-71
2022/03/06 14:31:05;;;;;;;0.63;0.63;;;;;;;;;;5118087;27;20212;-71
2022/03/06 14:33:53;;;;;;;0.70;0.70;;;;;;;;;;5118127;27;20296;-71
2022/03/06 14:36:40;;;;;;;1.40;0.63;;;;;;;;;;5118655;27;20465;-71
2022/03/06 14:39:29;;;;;;;0.57;0.57;;;;;;;;;;5124140;27;20259;-71
2022/03/06 14:42:15;;;;;;;2.47;0.80;;;;;;;;;;5123113;27;20238;-71
2022/03/06 14:45:04;;;;;;;1.27;0.80;;;;;;;;;;5120981;27;20213;-71
2022/03/06 14:47:51;;;;;;;0.60;0.60;;;;;;;;;;5120748;27;20218;-71
2022/03/06 14:50:38;;;;;;;1.37;0.60;;;;;;;;;;5119655;27;20202;-71
2022/03/06 14:53:25;;;;;;;1.10;0.70;;;;;;;;;;5119046;27;20221;-71
2022/03/06 14:56:12;;;;;;;1.13;0.50;;;;;;;;;;5117820;27;20261;-71
2022/03/06 14:59:00;;;;;;;0.43;0.43;;;;;;;;;;5121487;27;20201;-71
2022/03/06 15:01:48;;;;;;;0.60;0.60;;;;;;;;;;5120385;27;20218;-71
2022/03/06 15:04:35;;;;;;;1.97;1.00;;;;;;;;;;5123232;27;20298;-71
2022/03/06 15:07:22;;;;;;;1.57;0.50;;;;;;;;;;5121523;27;20206;-71
2022/03/06 15:10:09;;;;;;;0.83;0.70;;;;;;;;;;5118604;27;21082;-72
2022/03/06 15:12:56;;;;;;;2.20;0.77;;;;;;;;;;5116376;27;20225;-72
2022/03/06 15:15:45;;;;;;;0.63;0.63;;;;;;;;;;5117699;27;20277;-71
2022/03/06 15:18:34;;;;;;;1.37;0.80;;;;;;;;;;5123819;27;20665;-71
2022/03/06 15:21:21;;;;;;;0.87;0.60;;;;;;;;;;5122600;27;20653;-71
2022/03/06 15:24:08;;;;;;;0.70;0.70;;;;;;;;;;5118592;27;20326;-71
2022/03/06 15:26:54;;;;;;;0.70;0.70;;;;;;;;;;5118013;27;20275;-71
2022/03/06 15:29:41;;;;;;;0.73;0.73;;;;;;;;;;5120232;27;20220;-71
2022/03/06 15:32:28;;;;;;;0.80;0.80;;;;;;;;;;5120196;27;20248;-71
2022/03/06 15:35:17;;;;;;;0.50;0.50;;;;;;;;;;5120000;27;20264;-71
2022/03/06 15:38:04;;;;;;;0.70;0.70;;;;;;;;;;5116394;27;20289;-72
2022/03/06 15:40:51;;;;;;;0.43;0.43;;;;;;;;;;5120224;27;20204;-71
2022/03/06 15:43:38;;;;;;;1.27;0.60;;;;;;;;;;5118157;27;20228;-71
2022/03/06 15:46:25;;;;;;;0.77;0.77;;;;;;;;;;5119014;27;20261;-71
2022/03/06 15:49:12;;;;;;;0.70;0.70;;;;;;;;;;5121146;27;20312;-72
2022/03/06 15:52:00;;;;;;;1.90;0.80;;;;;;;;;;5121495;27;20942;-72
2022/03/06 15:54:48;;;;;;;0.60;0.60;;;;;;;;;;5120545;27;20212;-72
2022/03/06 15:57:35;;;;;;;1.20;0.60;;;;;;;;;;5116009;27;20593;-72
2022/03/06 16:00:22;;;;;;;0.53;0.53;;;;;;;;;;5116876;27;20696;-71
2022/03/06 16:03:09;;;;;;;0.70;0.70;;;;;;;;;;5117498;27;20331;-71
2022/03/06 16:05:56;;;;;;;0.73;0.50;;;;;;;;;;5115777;27;20248;-72
2022/03/06 16:08:44;;;;;;;0.67;0.67;;;;;;;;;;5119376;27;20232;-70
2022/03/06 16:11:31;;;;;;;0.60;0.60;;;;;;;;;;5117209;27;20248;-72
2022/03/06 16:14:18;;;;;;;0.50;0.50;;;;;;;;;;5117140;27;20703;-71
2022/03/06 16:17:06;;;;;;;0.50;0.50;;;;;;;;;;5119648;27;20246;-71
2022/03/06 16:19:53;;;;;;;0.40;0.40;;;;;;;;;;5119561;27;20260;-72
2022/03/06 16:22:40;;;;;;;0.57;0.57;;;;;;;;;;5117303;27;20675;-72
2022/03/06 16:25:28;;;;;;;0.80;0.80;;;;;;;;;;5117473;27;20304;-71
2022/03/06 16:28:15;;;;;;;0.90;0.90;;;;;;;;;;5113999;27;20574;-72
2022/03/06 16:31:03;;;;;;;0.80;0.80;;;;;;;;;;5123351;27;20232;-71
2022/03/06 16:33:51;;;;;;;0.60;0.60;;;;;;;;;;5118888;27;20570;-72
2022/03/06 16:36:38;;;;;;;0.60;0.60;;;;;;;;;;5118284;27;20259;-71
2022/03/06 16:39:26;;;;;;;0.70;0.70;;;;;;;;;;5117352;27;20217;-72
2022/03/06 16:42:14;;;;;;;1.43;0.60;;;;;;;;;;5117868;27;20625;-71
2022/03/06 16:45:01;;;;;;;0.50;0.50;;;;;;;;;;5120755;27;20203;-71
2022/03/06 16:47:48;;;;;;;0.53;0.53;;;;;;;;;;5119066;27;20205;-72
2022/03/06 16:50:39;;;;;;;0.60;0.60;;;;;;;;;;5121296;27;20278;-72